Bellevue, Washington
Current Conditions -  °F | °C
As of 9:53 AM on Friday 24 Oct 2014 (Local Time) from KBFI Reporting Station
Broken Clouds Broken Clouds  
Wind Chill: 53°   Ceiling: 24000
Heat Index: 53°   Visibility: 10mi
Dew Point: 45°   Wind: 0mph
Humidity: 74%   Direction: NA
Pressure: 30.05"   Gusts: NA
Location:  47.61°N, 122.18°W
Report Text: KBFI 241653Z 00000KT 10SM SCT130 BKN240 12/07 A3005 RMK AO2 SLP175 T01170072
Loading
Personal Weather Stations






























Interactive Weather Map
Tropical Storm Tracking
New forecast layout! Learn more

10-Day Weather Forecast

Advertisements
Track Severe Weather on mobile